Time;durP1;ratioP1;P1;durP2;ratioP2;P2;SDS_P1;SDS_P2;PMS_P1;PMS_P2;Temp;Humidity;BMP_temperature;BMP_pressure;BME280_temperature;BME280_humidity;BME280_pressure;Samples;Min_cycle;Max_cycle;Signal;HPM_P1;HPM_P2
2023/10/23 00:02:24;;;;;;;4.85;1.35;;;6.40;99.90;;;;;;5013596;28;20045;-73
2023/10/23 00:04:50;;;;;;;2.83;1.50;;;6.50;99.90;;;;;;5013454;28;20482;-73
2023/10/23 00:07:16;;;;;;;3.78;1.60;;;6.50;99.90;;;;;;5014083;28;20036;-73
2023/10/23 00:09:42;;;;;;;3.00;1.20;;;6.40;99.90;;;;;;5013777;28;20022;-73
2023/10/23 00:12:08;;;;;;;2.30;1.50;;;6.30;99.90;;;;;;5013586;28;20115;-73
2023/10/23 00:14:34;;;;;;;4.00;1.90;;;6.30;99.90;;;;;;5013741;28;20036;-73
2023/10/23 00:17:00;;;;;;;3.40;1.60;;;6.20;99.90;;;;;;5013384;28;20030;-73
2023/10/23 00:19:27;;;;;;;2.85;1.30;;;6.20;99.90;;;;;;5013420;28;20549;-73
2023/10/23 00:21:53;;;;;;;5.85;1.42;;;6.10;99.90;;;;;;5012154;28;20033;-73
2023/10/23 00:24:19;;;;;;;2.65;1.40;;;6.10;99.90;;;;;;5013295;28;20088;-73
2023/10/23 00:26:44;;;;;;;3.17;1.45;;;6.00;99.90;;;;;;5013361;28;20030;-73
2023/10/23 00:29:10;;;;;;;3.15;1.50;;;6.10;99.90;;;;;;5013377;28;20022;-73
2023/10/23 00:31:36;;;;;;;2.90;1.25;;;6.10;99.90;;;;;;5013399;28;20030;-73
2023/10/23 00:34:01;;;;;;;2.88;1.50;;;6.10;99.90;;;;;;5012027;28;20037;-73
2023/10/23 00:36:27;;;;;;;2.67;1.20;;;6.20;99.90;;;;;;5013573;28;20034;-73
2023/10/23 00:38:53;;;;;;;2.83;1.50;;;6.30;99.90;;;;;;5013866;28;20026;-73
2023/10/23 00:41:18;;;;;;;2.00;1.05;;;6.30;99.90;;;;;;5013282;28;20033;-73
2023/10/23 00:43:44;;;;;;;2.03;1.05;;;6.20;99.90;;;;;;5013196;28;20037;-73
2023/10/23 00:46:18;;;;;;;3.10;1.52;;;6.20;99.90;;;;;;5013221;28;20028;-73
2023/10/23 00:48:44;;;;;;;2.22;1.10;;;6.30;99.90;;;;;;5013258;28;20022;-73
2023/10/23 00:51:11;;;;;;;1.88;1.17;;;6.30;99.90;;;;;;5013116;28;20497;-73
2023/10/23 00:53:39;;;;;;;2.30;1.13;;;6.20;99.90;;;;;;5013124;28;20108;-73
2023/10/23 00:56:06;;;;;;;2.67;1.17;;;6.20;99.90;;;;;;5013536;28;20493;-73
2023/10/23 00:58:33;;;;;;;4.47;1.30;;;6.10;99.90;;;;;;5016810;28;20076;-73
2023/10/23 01:01:01;;;;;;;2.15;1.20;;;6.00;99.90;;;;;;5016702;28;20026;-73
2023/10/23 01:03:26;;;;;;;3.00;1.50;;;5.90;99.90;;;;;;5016561;28;20113;-73
2023/10/23 01:05:52;;;;;;;2.72;1.52;;;5.90;99.90;;;;;;5015724;28;20057;-73
2023/10/23 01:08:18;;;;;;;4.28;1.60;;;5.90;99.90;;;;;;5016828;28;20029;-73
2023/10/23 01:10:45;;;;;;;2.17;1.10;;;6.00;99.90;;;;;;4998926;28;20088;-73
2023/10/23 01:13:12;;;;;;;2.33;1.23;;;6.00;99.90;;;;;;5016754;28;20030;-73
2023/10/23 01:15:38;;;;;;;1.92;1.05;;;5.90;99.90;;;;;;5016386;28;20072;-73
2023/10/23 01:18:04;;;;;;;2.65;1.30;;;6.00;99.90;;;;;;5016538;28;20030;-73
2023/10/23 01:20:31;;;;;;;1.98;1.08;;;6.00;99.90;;;;;;5016310;28;20113;-73
2023/10/23 01:23:01;;;;;;;1.70;1.02;;;6.00;99.90;;;;;;5015088;28;20045;-73
2023/10/23 01:25:27;;;;;;;2.55;1.33;;;6.00;99.90;;;;;;5015654;28;20026;-73
2023/10/23 01:27:54;;;;;;;2.95;1.50;;;6.00;99.90;;;;;;5016762;28;20033;-73
2023/10/23 01:30:20;;;;;;;2.10;1.10;;;6.00;99.90;;;;;;5017455;28;20394;-73
2023/10/23 01:32:46;;;;;;;2.13;1.15;;;6.00;99.90;;;;;;5017600;28;20030;-73
2023/10/23 01:35:12;;;;;;;3.58;1.30;;;5.90;99.90;;;;;;5017019;28;20359;-73
2023/10/23 01:37:38;;;;;;;2.05;1.15;;;5.90;99.90;;;;;;5016236;28;20022;-73
2023/10/23 01:40:05;;;;;;;2.22;1.30;;;5.90;99.90;;;;;;5016083;28;20105;-73
2023/10/23 01:42:34;;;;;;;3.60;1.33;;;5.80;99.90;;;;;;5015026;28;20445;-73
2023/10/23 01:45:00;;;;;;;2.42;1.35;;;5.80;99.90;;;;;;5015846;28;20042;-73
2023/10/23 01:47:26;;;;;;;1.88;1.00;;;5.80;99.90;;;;;;5015896;28;20022;-73
2023/10/23 01:49:52;;;;;;;1.92;1.20;;;5.80;99.90;;;;;;5015905;28;20037;-73
2023/10/23 01:52:18;;;;;;;4.57;1.10;;;5.70;99.90;;;;;;5015922;28;20026;-73
2023/10/23 01:54:44;;;;;;;2.50;1.27;;;5.80;99.90;;;;;;5015698;28;20037;-73
2023/10/23 01:57:11;;;;;;;2.25;1.23;;;5.70;99.90;;;;;;5014532;28;20037;-73
2023/10/23 01:59:37;;;;;;;2.28;1.10;;;5.70;99.90;;;;;;5015975;28;20036;-73
2023/10/23 02:02:03;;;;;;;2.42;1.38;;;5.70;99.90;;;;;;5015795;28;20030;-73
2023/10/23 02:04:29;;;;;;;2.92;1.40;;;5.70;99.90;;;;;;5015887;28;20084;-73
2023/10/23 02:06:55;;;;;;;2.58;1.58;;;5.60;99.90;;;;;;5016119;28;20111;-73
2023/10/23 02:09:21;;;;;;;3.08;1.40;;;5.50;99.90;;;;;;5015555;28;20466;-73
2023/10/23 02:11:47;;;;;;;3.47;1.60;;;5.50;99.90;;;;;;5014279;28;20026;-73
2023/10/23 02:14:13;;;;;;;3.28;1.67;;;5.50;99.90;;;;;;5015434;28;20025;-73
2023/10/23 02:16:39;;;;;;;4.35;2.00;;;5.50;99.90;;;;;;5015545;28;20038;-73
2023/10/23 02:19:05;;;;;;;2.90;1.63;;;5.50;99.90;;;;;;5015848;28;20057;-73
2023/10/23 02:21:30;;;;;;;5.30;2.00;;;5.50;99.90;;;;;;5015203;28;20034;-74
2023/10/23 02:23:56;;;;;;;3.08;1.55;;;5.50;99.90;;;;;;5015171;28;20026;-74
2023/10/23 02:26:22;;;;;;;3.10;1.88;;;5.50;99.90;;;;;;5015211;28;20387;-74
2023/10/23 02:28:48;;;;;;;4.75;1.90;;;5.50;99.90;;;;;;5015072;28;20495;-74
2023/10/23 02:31:14;;;;;;;5.13;1.98;;;5.50;99.90;;;;;;5015087;28;20021;-74
2023/10/23 02:33:40;;;;;;;4.80;2.47;;;5.50;99.90;;;;;;5015153;28;20041;-74
2023/10/23 02:36:06;;;;;;;7.80;2.88;;;5.50;99.90;;;;;;5014994;28;20021;-74
2023/10/23 02:38:32;;;;;;;5.20;2.65;;;5.50;99.90;;;;;;5015008;28;20514;-74
2023/10/23 02:40:58;;;;;;;5.50;2.40;;;5.50;99.90;;;;;;5014844;28;20045;-74
2023/10/23 02:43:24;;;;;;;8.13;2.72;;;5.50;99.90;;;;;;5015808;28;20051;-74
2023/10/23 02:45:50;;;;;;;6.40;3.00;;;5.50;99.90;;;;;;5015004;28;20080;-74
2023/10/23 02:48:19;;;;;;;5.85;3.55;;;5.50;99.90;;;;;;5014840;28;20486;-74
2023/10/23 02:50:54;;;;;;;5.32;2.85;;;5.50;99.90;;;;;;5016754;28;20034;-74
2023/10/23 02:53:20;;;;;;;4.10;1.75;;;5.50;99.90;;;;;;5034818;28;20061;-74
2023/10/23 02:55:46;;;;;;;2.35;1.17;;;5.50;99.90;;;;;;5034686;28;20032;-74
2023/10/23 02:58:12;;;;;;;2.17;1.27;;;5.50;99.90;;;;;;5034296;28;20526;-74
2023/10/23 03:00:39;;;;;;;1.83;1.00;;;5.50;99.90;;;;;;5033157;28;20037;-74
2023/10/23 03:03:05;;;;;;;2.67;1.20;;;5.50;99.90;;;;;;5034476;28;20033;-74
2023/10/23 03:05:32;;;;;;;1.98;1.00;;;5.50;99.90;;;;;;5034417;28;20045;-74
2023/10/23 03:07:57;;;;;;;2.05;1.13;;;5.50;99.90;;;;;;5032890;28;20026;-74
2023/10/23 03:10:23;;;;;;;2.28;1.30;;;5.40;99.90;;;;;;5034300;28;20022;-74
2023/10/23 03:12:49;;;;;;;2.47;1.63;;;5.40;99.90;;;;;;5034058;28;20036;-74
2023/10/23 03:15:16;;;;;;;3.28;1.00;;;5.40;99.90;;;;;;5032962;28;20022;-74
2023/10/23 03:17:42;;;;;;;1.75;1.00;;;5.40;99.90;;;;;;5033934;28;20022;-74
2023/10/23 03:20:08;;;;;;;2.58;1.15;;;5.40;99.90;;;;;;5033812;28;20470;-74
2023/10/23 03:22:34;;;;;;;5.63;1.60;;;5.40;99.90;;;;;;5032682;28;20029;-74
2023/10/23 03:25:00;;;;;;;3.03;1.30;;;5.40;99.90;;;;;;5034099;28;20105;-74
2023/10/23 03:27:26;;;;;;;1.88;1.20;;;5.40;99.90;;;;;;5034281;28;20040;-74
2023/10/23 03:29:52;;;;;;;2.30;1.15;;;5.30;99.90;;;;;;5034176;28;20022;-74
2023/10/23 03:32:17;;;;;;;2.67;1.25;;;5.30;99.90;;;;;;5032551;28;20036;-74
2023/10/23 03:34:44;;;;;;;3.20;1.75;;;5.30;99.90;;;;;;5034282;28;20028;-74
2023/10/23 03:37:10;;;;;;;2.95;1.90;;;5.40;99.90;;;;;;5033809;28;20037;-74
2023/10/23 03:39:36;;;;;;;4.47;2.65;;;5.40;99.90;;;;;;5033748;28;20040;-74
2023/10/23 03:42:02;;;;;;;3.60;2.47;;;5.40;99.90;;;;;;5034042;28;20028;-74
2023/10/23 03:44:28;;;;;;;4.45;2.60;;;5.40;99.90;;;;;;5033670;28;20536;-74
2023/10/23 03:46:53;;;;;;;3.85;2.03;;;5.40;99.90;;;;;;5033531;28;20021;-74
2023/10/23 03:49:19;;;;;;;2.65;1.70;;;5.50;99.90;;;;;;5033757;28;20038;-74
2023/10/23 03:51:45;;;;;;;1.67;1.10;;;5.50;99.90;;;;;;5033847;28;20029;-74
2023/10/23 03:54:11;;;;;;;1.85;1.15;;;5.50;99.90;;;;;;5022295;28;20104;-74
2023/10/23 03:56:37;;;;;;;2.20;1.35;;;5.50;99.90;;;;;;5022786;28;20474;-74
2023/10/23 03:59:03;;;;;;;2.38;1.38;;;5.40;99.90;;;;;;5033958;28;20056;-74
2023/10/23 04:01:29;;;;;;;1.77;1.05;;;5.40;99.90;;;;;;5016313;28;20467;-74
2023/10/23 04:03:55;;;;;;;3.70;1.60;;;5.30;99.90;;;;;;5031581;28;20030;-74
2023/10/23 04:06:20;;;;;;;2.15;1.30;;;5.30;99.90;;;;;;5028228;28;20029;-74
2023/10/23 04:08:46;;;;;;;2.08;1.30;;;5.30;99.90;;;;;;5031776;28;20029;-74
2023/10/23 04:11:15;;;;;;;2.30;1.20;;;5.30;99.90;;;;;;5033289;28;20064;-75
2023/10/23 04:13:40;;;;;;;3.83;1.65;;;5.30;99.90;;;;;;5030593;28;20033;-74
2023/10/23 04:16:07;;;;;;;2.03;1.10;;;5.40;99.90;;;;;;5025799;28;20497;-74
2023/10/23 04:18:33;;;;;;;2.10;1.40;;;5.30;99.90;;;;;;5014512;28;20040;-74
2023/10/23 04:21:07;;;;;;;4.43;1.30;;;5.30;99.90;;;;;;5012355;28;20037;-74
2023/10/23 04:23:34;;;;;;;3.47;1.55;;;5.20;99.90;;;;;;5013432;28;20437;-74
2023/10/23 04:26:00;;;;;;;7.00;1.50;;;5.20;99.90;;;;;;5012645;28;20069;-75
2023/10/23 04:28:26;;;;;;;2.10;1.30;;;5.10;99.90;;;;;;5013377;28;20490;-74
2023/10/23 04:30:51;;;;;;;2.13;1.40;;;5.10;99.90;;;;;;5012031;28;20022;-75
2023/10/23 04:33:21;;;;;;;2.17;1.20;;;5.10;99.90;;;;;;5017037;28;20541;-74
2023/10/23 04:35:51;;;;;;;3.97;1.38;;;5.10;99.90;;;;;;5017213;28;20029;-74
2023/10/23 04:38:17;;;;;;;3.25;1.27;;;5.10;99.90;;;;;;5017721;28;20037;-75
2023/10/23 04:40:44;;;;;;;2.65;1.80;;;5.10;99.90;;;;;;5017129;28;20026;-75
2023/10/23 04:43:10;;;;;;;3.50;2.10;;;5.10;99.90;;;;;;5017195;28;20033;-74
2023/10/23 04:45:36;;;;;;;3.33;2.25;;;5.10;99.90;;;;;;5015727;28;20022;-74
2023/10/23 04:48:02;;;;;;;4.43;2.22;;;5.10;99.90;;;;;;5015793;28;20387;-75
2023/10/23 04:50:31;;;;;;;6.32;1.85;;;5.20;99.90;;;;;;5015812;28;20033;-74
2023/10/23 04:52:59;;;;;;;3.97;1.80;;;5.20;99.90;;;;;;5028157;28;20466;-74
2023/10/23 04:55:34;;;;;;;2.65;1.60;;;5.20;99.90;;;;;;5036030;28;20025;-74
2023/10/23 04:58:00;;;;;;;2.72;1.33;;;5.30;99.90;;;;;;5036378;28;20041;-74
2023/10/23 05:00:27;;;;;;;2.53;1.48;;;5.30;99.90;;;;;;5036702;28;20026;-74
2023/10/23 05:02:53;;;;;;;3.65;1.63;;;5.40;99.90;;;;;;5036641;28;20018;-74
2023/10/23 05:05:18;;;;;;;3.75;1.90;;;5.40;99.90;;;;;;5036704;28;20043;-74
2023/10/23 05:07:44;;;;;;;3.90;1.77;;;5.40;99.90;;;;;;5036709;28;20081;-75
2023/10/23 05:10:11;;;;;;;3.00;1.52;;;5.50;99.90;;;;;;5036358;28;20084;-73
2023/10/23 05:12:37;;;;;;;2.63;1.60;;;5.50;99.90;;;;;;5036213;28;20072;-73
2023/10/23 05:15:03;;;;;;;2.83;1.38;;;5.50;99.90;;;;;;5036253;28;20490;-73
2023/10/23 05:17:29;;;;;;;2.22;1.33;;;5.50;99.90;;;;;;5035055;28;20029;-74
2023/10/23 05:19:54;;;;;;;2.97;1.48;;;5.50;99.90;;;;;;5034873;28;20083;-74
2023/10/23 05:22:20;;;;;;;3.22;1.60;;;5.50;99.90;;;;;;5034996;28;20034;-74
2023/10/23 05:24:49;;;;;;;2.92;1.60;;;5.50;99.90;;;;;;5036023;28;20172;-74
2023/10/23 05:27:15;;;;;;;5.82;3.53;;;5.50;99.90;;;;;;5036186;28;20095;-74
2023/10/23 05:29:41;;;;;;;5.78;3.83;;;5.50;99.90;;;;;;5035940;28;20026;-74
2023/10/23 05:32:07;;;;;;;4.82;2.90;;;5.40;99.90;;;;;;5035994;28;20022;-74
2023/10/23 05:34:34;;;;;;;4.05;2.70;;;5.40;99.90;;;;;;5035818;28;20037;-74
2023/10/23 05:37:00;;;;;;;3.13;2.10;;;5.40;99.90;;;;;;5035827;28;20029;-74
2023/10/23 05:39:26;;;;;;;2.90;1.90;;;5.40;99.90;;;;;;5035817;28;20031;-74
2023/10/23 05:41:51;;;;;;;4.38;2.05;;;5.40;99.90;;;;;;5035474;28;20052;-73
2023/10/23 05:44:17;;;;;;;3.88;2.08;;;5.40;99.90;;;;;;5035512;28;20038;-74
2023/10/23 05:46:43;;;;;;;5.05;2.28;;;5.40;99.90;;;;;;5035720;28;20101;-74
2023/10/23 05:49:08;;;;;;;4.28;2.40;;;5.40;99.90;;;;;;5035562;28;20501;-74
2023/10/23 05:51:34;;;;;;;7.70;3.35;;;5.50;99.90;;;;;;5034560;28;20433;-74
2023/10/23 05:54:00;;;;;;;6.63;3.55;;;5.50;99.90;;;;;;5034533;28;20436;-74
2023/10/23 05:56:25;;;;;;;6.22;3.30;;;5.50;99.90;;;;;;5035562;28;20037;-74
2023/10/23 05:58:51;;;;;;;5.13;3.20;;;5.50;99.90;;;;;;5035356;28;20034;-74
2023/10/23 06:01:17;;;;;;;9.52;6.10;;;5.40;99.90;;;;;;5034193;28;20026;-74
2023/10/23 06:03:43;;;;;;;7.70;5.00;;;5.40;99.90;;;;;;5035363;28;20030;-74
2023/10/23 06:06:09;;;;;;;11.93;5.30;;;5.40;99.90;;;;;;5035416;28;20040;-74
2023/10/23 06:08:35;;;;;;;7.63;5.20;;;5.40;99.90;;;;;;5034159;28;20030;-74
2023/10/23 06:11:01;;;;;;;6.50;4.57;;;5.40;99.90;;;;;;5034039;28;20053;-74
2023/10/23 06:13:27;;;;;;;7.57;4.28;;;5.50;99.90;;;;;;5034032;28;20040;-74
2023/10/23 06:15:53;;;;;;;8.07;4.65;;;5.50;99.90;;;;;;5035220;28;20034;-75
2023/10/23 06:18:19;;;;;;;7.57;4.28;;;5.50;99.90;;;;;;5035200;28;20486;-74
2023/10/23 06:20:45;;;;;;;6.90;4.38;;;5.60;99.90;;;;;;5034668;28;20029;-74
2023/10/23 06:23:11;;;;;;;7.63;3.78;;;5.60;99.90;;;;;;5035382;28;20083;-74
2023/10/23 06:25:36;;;;;;;8.52;4.45;;;5.60;99.90;;;;;;5035548;28;20050;-74
2023/10/23 06:28:03;;;;;;;6.68;3.75;;;5.70;99.90;;;;;;5034987;28;20032;-74
2023/10/23 06:30:29;;;;;;;5.15;3.20;;;5.70;99.90;;;;;;5034020;28;20049;-74
2023/10/23 06:32:55;;;;;;;4.72;3.15;;;5.70;99.90;;;;;;5034919;28;20060;-74
2023/10/23 06:35:20;;;;;;;6.95;3.03;;;5.80;99.90;;;;;;5035072;28;20061;-75
2023/10/23 06:37:48;;;;;;;4.50;2.47;;;5.80;99.90;;;;;;5034791;28;20033;-74
2023/10/23 06:40:14;;;;;;;4.07;2.50;;;5.80;99.90;;;;;;5034755;28;20508;-73
2023/10/23 06:42:39;;;;;;;4.40;2.72;;;5.90;99.90;;;;;;5034943;28;20065;-74
2023/10/23 06:45:06;;;;;;;4.18;2.40;;;5.90;99.90;;;;;;5034556;28;20060;-74
2023/10/23 06:47:32;;;;;;;5.25;2.70;;;5.90;99.90;;;;;;5035214;28;20105;-73
2023/10/23 06:49:59;;;;;;;4.95;2.20;;;5.90;99.90;;;;;;5033677;28;20032;-74
2023/10/23 06:52:25;;;;;;;4.47;2.45;;;6.00;99.90;;;;;;5033431;28;20112;-74
2023/10/23 06:54:51;;;;;;;4.90;2.60;;;6.00;99.90;;;;;;5032890;28;20483;-74
2023/10/23 06:57:16;;;;;;;2.95;1.85;;;6.00;99.90;;;;;;5034683;28;20061;-74
2023/10/23 06:59:42;;;;;;;7.57;4.53;;;6.10;99.90;;;;;;5034579;28;20045;-75
2023/10/23 07:02:09;;;;;;;6.13;2.70;;;6.10;99.90;;;;;;5034490;28;20398;-74
2023/10/23 07:04:34;;;;;;;4.95;3.05;;;6.10;99.90;;;;;;5034226;28;20028;-74
2023/10/23 07:07:00;;;;;;;5.38;2.90;;;6.20;99.90;;;;;;5032668;28;20026;-74
2023/10/23 07:09:26;;;;;;;5.70;2.78;;;6.20;99.90;;;;;;5034208;28;20052;-74
2023/10/23 07:11:52;;;;;;;5.50;2.65;;;6.30;99.90;;;;;;5034176;28;20478;-74
2023/10/23 07:14:18;;;;;;;5.38;3.20;;;6.30;99.90;;;;;;5014424;28;20394;-74
2023/10/23 07:16:45;;;;;;;6.95;4.57;;;6.30;99.90;;;;;;5014420;28;20489;-74
2023/10/23 07:19:11;;;;;;;6.85;3.97;;;6.30;99.90;;;;;;5014235;28;20543;-74
2023/10/23 07:21:37;;;;;;;5.97;3.40;;;6.40;99.90;;;;;;5014279;28;20100;-74
2023/10/23 07:24:03;;;;;;;4.95;2.20;;;6.40;99.90;;;;;;5013086;28;20141;-74
2023/10/23 07:26:29;;;;;;;4.40;2.72;;;6.50;99.90;;;;;;5014366;28;20037;-73
2023/10/23 07:28:55;;;;;;;6.40;2.70;;;6.50;99.90;;;;;;5014226;28;20096;-74
2023/10/23 07:31:21;;;;;;;3.33;2.17;;;6.50;99.90;;;;;;5013994;28;20483;-74
2023/10/23 07:33:47;;;;;;;4.18;2.00;;;6.60;99.90;;;;;;5012742;28;20100;-74
2023/10/23 07:36:14;;;;;;;4.72;2.38;;;6.60;99.90;;;;;;5014224;28;20386;-74
2023/10/23 07:38:44;;;;;;;4.63;2.22;;;6.70;99.90;;;;;;5014033;28;20030;-74
2023/10/23 07:41:11;;;;;;;3.63;2.30;;;6.70;99.90;;;;;;5014163;28;20057;-74
2023/10/23 07:43:38;;;;;;;4.13;2.30;;;6.80;99.90;;;;;;5013833;28;20026;-74
2023/10/23 07:46:05;;;;;;;6.50;3.30;;;6.90;99.90;;;;;;5013784;28;20196;-75
2023/10/23 07:48:31;;;;;;;6.80;3.38;;;6.90;99.90;;;;;;5014187;28;20041;-74
2023/10/23 07:50:59;;;;;;;5.65;3.67;;;7.00;99.90;;;;;;5013741;28;20100;-74
2023/10/23 07:53:27;;;;;;;7.07;4.68;;;7.00;99.90;;;;;;5014384;28;20077;-74
2023/10/23 07:55:54;;;;;;;9.65;5.10;;;7.10;99.90;;;;;;5014113;28;20026;-74
2023/10/23 07:58:20;;;;;;;6.50;3.65;;;7.10;99.90;;;;;;5014987;28;20527;-74
2023/10/23 08:00:45;;;;;;;5.20;3.70;;;7.20;99.90;;;;;;5016991;28;20033;-74
2023/10/23 08:03:11;;;;;;;6.82;3.20;;;7.30;99.90;;;;;;5017809;28;20080;-73
2023/10/23 08:05:37;;;;;;;4.53;2.95;;;7.50;99.90;;;;;;5017458;28;20034;-73
2023/10/23 08:08:06;;;;;;;4.72;2.88;;;7.60;99.90;;;;;;5020855;28;20049;-74
2023/10/23 08:10:31;;;;;;;4.88;2.50;;;7.70;99.90;;;;;;5019410;28;20033;-74
2023/10/23 08:12:57;;;;;;;4.28;2.65;;;7.80;99.90;;;;;;5020758;28;20390;-74
2023/10/23 08:15:23;;;;;;;4.55;2.42;;;7.90;99.90;;;;;;5020342;28;20444;-74
2023/10/23 08:17:50;;;;;;;6.03;2.13;;;8.00;99.90;;;;;;5020224;28;20076;-74
2023/10/23 08:20:17;;;;;;;5.25;2.47;;;8.10;99.90;;;;;;5020407;28;20022;-74
2023/10/23 08:22:42;;;;;;;3.50;2.00;;;8.20;99.90;;;;;;5020110;28;20075;-74
2023/10/23 08:25:08;;;;;;;2.92;1.70;;;8.30;99.90;;;;;;5019979;28;20029;-74
2023/10/23 08:27:34;;;;;;;3.55;2.42;;;8.40;99.90;;;;;;5019980;28;20091;-74
2023/10/23 08:30:00;;;;;;;4.85;3.17;;;8.40;99.90;;;;;;5020203;28;20038;-74
2023/10/23 08:32:25;;;;;;;8.05;3.38;;;8.50;99.90;;;;;;5021199;28;20049;-72
2023/10/23 08:34:54;;;;;;;7.63;3.35;;;8.50;99.90;;;;;;5021640;28;20113;-72
2023/10/23 08:37:20;;;;;;;6.32;3.40;;;8.60;99.90;;;;;;5021710;28;20056;-72
2023/10/23 08:39:46;;;;;;;7.45;3.22;;;8.60;99.90;;;;;;5021348;28;20030;-72
2023/10/23 08:42:11;;;;;;;4.97;3.20;;;8.70;99.90;;;;;;5023560;28;20029;-72
2023/10/23 08:44:37;;;;;;;5.78;3.53;;;8.80;99.90;;;;;;5023252;28;20136;-72
2023/10/23 08:47:04;;;;;;;5.05;3.20;;;8.80;99.90;;;;;;5020273;28;20030;-72
2023/10/23 08:49:30;;;;;;;4.32;3.22;;;8.90;99.90;;;;;;5021128;28;20494;-72
2023/10/23 08:51:59;;;;;;;6.18;3.78;;;8.90;99.90;;;;;;5021503;28;20025;-72
2023/10/23 08:54:26;;;;;;;4.93;2.90;;;9.00;99.90;;;;;;5022079;28;20091;-72
2023/10/23 08:57:00;;;;;;;5.03;2.45;;;9.00;99.90;;;;;;5021474;28;20057;-73
2023/10/23 08:59:26;;;;;;;4.85;2.45;;;9.10;99.90;;;;;;5021373;28;20037;-72
2023/10/23 09:01:52;;;;;;;4.82;2.80;;;9.20;99.90;;;;;;5003438;28;20065;-72
2023/10/23 09:04:17;;;;;;;5.30;2.92;;;9.20;99.90;;;;;;5020127;28;20517;-72
2023/10/23 09:06:43;;;;;;;5.38;2.75;;;9.30;99.90;;;;;;5020125;28;20034;-72
2023/10/23 09:09:09;;;;;;;7.57;3.90;;;9.40;99.90;;;;;;5021362;28;20037;-72
2023/10/23 09:11:39;;;;;;;20.88;7.75;;;9.50;99.90;;;;;;5021054;28;20029;-72
2023/10/23 09:14:04;;;;;;;18.65;7.60;;;9.60;99.90;;;;;;5019899;28;20044;-72
2023/10/23 09:16:30;;;;;;;18.75;6.75;;;9.80;99.90;;;;;;5018056;28;20033;-72
2023/10/23 09:18:56;;;;;;;16.52;5.63;;;10.00;99.90;;;;;;5016004;28;20037;-72
2023/10/23 09:21:22;;;;;;;19.08;6.18;;;10.20;99.90;;;;;;5016707;28;20026;-72
2023/10/23 09:23:51;;;;;;;19.15;7.40;;;10.40;99.90;;;;;;5016666;28;20026;-72
2023/10/23 09:26:18;;;;;;;15.35;6.10;;;10.60;99.90;;;;;;5016644;28;20022;-72
2023/10/23 09:28:44;;;;;;;14.02;6.10;;;10.80;99.90;;;;;;5016367;28;20434;-72
2023/10/23 09:31:10;;;;;;;15.25;5.68;;;10.90;99.90;;;;;;5015011;28;20029;-72
2023/10/23 09:33:36;;;;;;;15.55;5.68;;;11.00;99.90;;;;;;5016726;28;20093;-72
2023/10/23 09:36:02;;;;;;;16.95;5.65;;;11.00;99.90;;;;;;5016081;28;20088;-72
2023/10/23 09:38:28;;;;;;;11.18;4.47;;;11.10;99.90;;;;;;5015125;28;20038;-72
2023/10/23 09:40:57;;;;;;;11.82;3.92;;;11.20;99.90;;;;;;5016350;28;20037;-72
2023/10/23 09:43:23;;;;;;;9.95;3.63;;;11.20;99.90;;;;;;5014740;28;20402;-72
2023/10/23 09:45:51;;;;;;;9.15;3.72;;;11.20;99.90;;;;;;5015892;28;20034;-72
2023/10/23 09:48:18;;;;;;;8.43;3.50;;;11.30;99.90;;;;;;5016095;28;20034;-72
2023/10/23 09:50:47;;;;;;;13.30;3.63;;;11.30;99.90;;;;;;5015796;28;20067;-72
2023/10/23 09:53:13;;;;;;;12.80;4.00;;;11.40;99.90;;;;;;5015833;28;20018;-72
2023/10/23 09:55:41;;;;;;;8.60;4.20;;;11.40;99.90;;;;;;5016048;28;20049;-72
2023/10/23 09:58:13;;;;;;;10.23;4.05;;;11.50;99.90;;;;;;5014385;28;20375;-72
2023/10/23 10:00:40;;;;;;;10.20;3.40;;;11.60;99.90;;;;;;5014405;28;20041;-72
2023/10/23 10:03:11;;;;;;;6.55;3.00;;;11.70;99.90;;;;;;5015618;28;20026;-72
2023/10/23 10:05:58;;;;;;;10.18;3.20;;;11.80;99.90;;;;;;5015646;28;20077;-72
2023/10/23 10:08:26;;;;;;;6.07;2.72;;;11.80;99.90;;;;;;5015553;28;20029;-72
2023/10/23 10:10:53;;;;;;;4.13;2.00;;;11.90;99.90;;;;;;5015491;28;20029;-72
2023/10/23 10:13:20;;;;;;;3.38;1.63;;;12.00;99.90;;;;;;5015467;28;20045;-72
2023/10/23 10:15:49;;;;;;;3.80;1.40;;;12.10;99.90;;;;;;5015386;28;20053;-72
2023/10/23 10:18:16;;;;;;;3.97;1.48;;;12.20;99.90;;;;;;5015365;28;20026;-72
2023/10/23 10:20:47;;;;;;;2.63;0.90;;;12.40;99.90;;;;;;5015189;28;20550;-72
2023/10/23 10:23:15;;;;;;;1.08;0.60;;;12.40;99.90;;;;;;5015171;28;20030;-72
2023/10/23 10:25:44;;;;;;;2.35;0.75;;;12.50;99.90;;;;;;5015157;28;20061;-71
2023/10/23 10:28:11;;;;;;;3.97;1.00;;;12.50;99.90;;;;;;5014857;28;20422;-72
2023/10/23 10:30:42;;;;;;;3.80;1.48;;;12.50;99.90;;;;;;5014240;28;20076;-72
2023/10/23 10:33:15;;;;;;;2.72;0.90;;;12.50;99.90;;;;;;5015458;28;20072;-72
2023/10/23 10:35:46;;;;;;;3.42;1.27;;;12.60;99.90;;;;;;5015363;28;20030;-72
2023/10/23 10:38:15;;;;;;;3.00;1.30;;;12.80;99.90;;;;;;5015006;28;20026;-72
2023/10/23 10:40:59;;;;;;;2.35;0.98;;;12.90;99.90;;;;;;5015080;28;20022;-72
2023/10/23 10:43:37;;;;;;;3.22;1.05;;;13.10;99.90;;;;;;5014868;28;20033;-72
2023/10/23 10:46:18;;;;;;;3.05;1.05;;;13.20;99.90;;;;;;5014924;28;20398;-72
2023/10/23 10:48:49;;;;;;;4.03;1.70;;;13.30;99.90;;;;;;5014779;28;20022;-72
2023/10/23 10:51:21;;;;;;;9.85;2.05;;;13.50;99.90;;;;;;5013580;28;20495;-72
2023/10/23 10:53:48;;;;;;;4.50;1.60;;;13.60;99.90;;;;;;5014921;28;20104;-72
2023/10/23 10:56:14;;;;;;;3.28;1.52;;;13.70;99.90;;;;;;5015134;28;20030;-72
2023/10/23 10:58:43;;;;;;;3.10;1.00;;;13.80;99.90;;;;;;5014962;28;20471;-72
2023/10/23 11:01:09;;;;;;;3.22;1.10;;;13.80;99.90;;;;;;5013579;28;20067;-72
2023/10/23 11:03:36;;;;;;;3.55;1.20;;;13.90;99.90;;;;;;5013644;28;20037;-72
2023/10/23 11:06:04;;;;;;;2.20;0.90;;;13.90;99.90;;;;;;5014406;28;20028;-72
2023/10/23 11:08:30;;;;;;;4.20;1.20;;;13.90;99.90;;;;;;5014649;28;20033;-72
2023/10/23 11:10:57;;;;;;;5.07;1.40;;;14.00;99.90;;;;;;5014256;28;20025;-72
2023/10/23 11:13:22;;;;;;;3.08;1.50;;;14.10;99.90;;;;;;5014396;28;20033;-72
2023/10/23 11:15:52;;;;;;;3.53;1.17;;;14.20;99.90;;;;;;5014273;28;20034;-72
2023/10/23 11:18:19;;;;;;;1.95;1.00;;;14.30;99.90;;;;;;5014195;28;20105;-71
2023/10/23 11:20:45;;;;;;;1.80;0.90;;;14.30;99.90;;;;;;5014153;28;20402;-71
2023/10/23 11:23:22;;;;;;;1.85;0.80;;;14.40;99.90;;;;;;5014024;28;20030;-71
2023/10/23 11:25:54;;;;;;;5.15;1.50;;;14.50;99.90;;;;;;5014194;28;20028;-72
2023/10/23 11:28:20;;;;;;;5.22;1.70;;;14.50;99.90;;;;;;5012838;28;20061;-72
2023/10/23 11:30:57;;;;;;;5.63;1.90;;;14.60;99.90;;;;;;5012996;28;20040;-72
2023/10/23 11:33:23;;;;;;;6.47;2.00;;;14.70;99.90;;;;;;5012767;28;20032;-72
2023/10/23 11:35:49;;;;;;;3.85;1.65;;;14.70;99.90;;;;;;5014162;28;20021;-72
2023/10/23 11:38:15;;;;;;;3.42;1.50;;;14.80;99.90;;;;;;5014310;28;20483;-72
2023/10/23 11:40:42;;;;;;;5.10;1.63;;;14.90;99.90;;;;;;5013417;28;20117;-72
2023/10/23 11:43:10;;;;;;;4.60;1.65;;;14.90;99.90;;;;;;5012551;28;20475;-72
2023/10/23 11:45:36;;;;;;;5.28;1.42;;;15.00;99.90;;;;;;5013885;28;20041;-72
2023/10/23 11:48:02;;;;;;;5.85;1.67;;;15.20;99.90;;;;;;5013791;28;20026;-72
2023/10/23 11:50:29;;;;;;;4.47;1.70;;;15.30;99.90;;;;;;5014419;28;20026;-72
2023/10/23 11:52:54;;;;;;;3.40;1.60;;;15.40;99.90;;;;;;5032685;28;20112;-72
2023/10/23 11:55:20;;;;;;;3.78;1.55;;;15.50;99.90;;;;;;5033770;28;20116;-72
2023/10/23 11:57:50;;;;;;;4.05;1.90;;;15.70;99.90;;;;;;5033677;28;20438;-72
2023/10/23 12:00:17;;;;;;;3.80;1.83;;;15.80;99.90;;;;;;5033364;28;20025;-72
2023/10/23 12:02:44;;;;;;;3.78;1.60;;;15.90;99.90;;;;;;5034973;28;20025;-72
2023/10/23 12:05:20;;;;;;;3.40;1.73;;;15.80;99.90;;;;;;5033836;28;20029;-71
2023/10/23 12:07:48;;;;;;;4.47;1.50;;;15.70;99.90;;;;;;5033680;28;20378;-72
2023/10/23 12:10:16;;;;;;;6.43;1.88;;;15.60;99.90;;;;;;5033237;28;20101;-72
2023/10/23 12:12:43;;;;;;;6.47;2.22;;;15.60;99.90;;;;;;5033230;28;20025;-72
2023/10/23 12:15:10;;;;;;;5.10;2.30;;;15.60;99.90;;;;;;5033227;28;20034;-72
2023/10/23 12:17:37;;;;;;;10.88;4.07;;;15.70;99.90;;;;;;5033260;28;20033;-72
2023/10/23 12:20:07;;;;;;;11.45;4.30;;;15.70;99.90;;;;;;5033674;28;20417;-72
2023/10/23 12:22:53;;;;;;;11.23;4.13;;;15.70;99.90;;;;;;5033237;28;20033;-72
2023/10/23 12:25:19;;;;;;;4.18;1.85;;;15.80;99.90;;;;;;5032927;28;20069;-71
2023/10/23 12:27:45;;;;;;;4.78;1.88;;;15.80;99.90;;;;;;5033414;28;20103;-72
2023/10/23 12:30:11;;;;;;;4.03;1.70;;;15.90;99.90;;;;;;5032917;28;20026;-71
2023/10/23 12:32:39;;;;;;;3.25;1.50;;;15.90;99.90;;;;;;5031990;28;20049;-71
2023/10/23 12:35:05;;;;;;;3.95;1.30;;;16.00;99.90;;;;;;5032991;28;20029;-72
2023/10/23 12:37:31;;;;;;;4.90;1.13;;;16.00;99.90;;;;;;5032984;28;20034;-72
2023/10/23 12:40:00;;;;;;;2.50;1.02;;;16.10;99.90;;;;;;5032918;28;20429;-72
2023/10/23 12:42:27;;;;;;;2.08;0.95;;;16.10;99.90;;;;;;5033105;28;20084;-72
2023/10/23 12:44:54;;;;;;;2.38;1.13;;;16.20;99.90;;;;;;5033085;28;20033;-71
2023/10/23 12:47:20;;;;;;;1.73;1.00;;;16.20;99.90;;;;;;5032028;28;20026;-72
2023/10/23 12:49:46;;;;;;;4.03;1.23;;;16.20;99.90;;;;;;5031611;28;20075;-72
2023/10/23 12:52:12;;;;;;;5.35;1.30;;;16.30;99.90;;;;;;5033789;28;20113;-71